sensor_id;sensor_type;location;lat;lon;timestamp;temperature;humidity
71237;DHT22;58984;51.960;5.582;2023-10-13T00:01:23;21.90;68.10
71237;DHT22;58984;51.960;5.582;2023-10-13T00:03:52;21.90;68.30
71237;DHT22;58984;51.960;5.582;2023-10-13T00:06:18;21.90;68.30
71237;DHT22;58984;51.960;5.582;2023-10-13T00:08:45;21.90;68.10
71237;DHT22;58984;51.960;5.582;2023-10-13T00:11:14;21.90;68.10
71237;DHT22;58984;51.960;5.582;2023-10-13T00:13:41;21.90;68.20
71237;DHT22;58984;51.960;5.582;2023-10-13T00:16:18;21.90;68.30
71237;DHT22;58984;51.960;5.582;2023-10-13T00:18:48;21.90;68.30
71237;DHT22;58984;51.960;5.582;2023-10-13T00:21:14;21.90;68.30
71237;DHT22;58984;51.960;5.582;2023-10-13T00:23:42;21.90;68.30
71237;DHT22;58984;51.960;5.582;2023-10-13T00:26:22;21.90;68.20
71237;DHT22;58984;51.960;5.582;2023-10-13T00:28:50;21.90;68.30
71237;DHT22;58984;51.960;5.582;2023-10-13T00:31:27;21.90;68.40
71237;DHT22;58984;51.960;5.582;2023-10-13T00:34:02;21.90;68.30
71237;DHT22;58984;51.960;5.582;2023-10-13T00:36:44;21.90;68.30
71237;DHT22;58984;51.960;5.582;2023-10-13T00:39:14;21.90;68.10
71237;DHT22;58984;51.960;5.582;2023-10-13T00:41:42;21.90;68.30
71237;DHT22;58984;51.960;5.582;2023-10-13T00:44:18;21.90;68.40
71237;DHT22;58984;51.960;5.582;2023-10-13T00:46:53;21.90;68.40
71237;DHT22;58984;51.960;5.582;2023-10-13T00:49:21;21.90;68.40
71237;DHT22;58984;51.960;5.582;2023-10-13T00:51:49;21.90;68.40
71237;DHT22;58984;51.960;5.582;2023-10-13T00:54:15;21.90;68.50
71237;DHT22;58984;51.960;5.582;2023-10-13T00:56:46;21.90;68.50
71237;DHT22;58984;51.960;5.582;2023-10-13T00:59:23;21.90;68.50
71237;DHT22;58984;51.960;5.582;2023-10-13T01:01:51;21.90;68.30
71237;DHT22;58984;51.960;5.582;2023-10-13T01:04:21;21.90;68.40
71237;DHT22;58984;51.960;5.582;2023-10-13T01:06:52;21.90;68.30
71237;DHT22;58984;51.960;5.582;2023-10-13T01:09:18;21.90;68.30
71237;DHT22;58984;51.960;5.582;2023-10-13T01:11:45;22.00;68.40
71237;DHT22;58984;51.960;5.582;2023-10-13T01:14:12;21.90;68.30
71237;DHT22;58984;51.960;5.582;2023-10-13T01:16:38;21.90;68.40
71237;DHT22;58984;51.960;5.582;2023-10-13T01:19:10;21.90;68.30
71237;DHT22;58984;51.960;5.582;2023-10-13T01:21:38;21.90;68.30
71237;DHT22;58984;51.960;5.582;2023-10-13T01:24:06;21.90;68.30
71237;DHT22;58984;51.960;5.582;2023-10-13T01:26:36;21.90;68.40
71237;DHT22;58984;51.960;5.582;2023-10-13T01:29:08;21.90;68.50
71237;DHT22;58984;51.960;5.582;2023-10-13T01:31:41;21.90;68.30
71237;DHT22;58984;51.960;5.582;2023-10-13T01:34:17;21.90;68.30
71237;DHT22;58984;51.960;5.582;2023-10-13T01:36:51;21.90;68.40
71237;DHT22;58984;51.960;5.582;2023-10-13T01:39:21;21.90;68.30
71237;DHT22;58984;51.960;5.582;2023-10-13T01:41:52;21.90;68.40
71237;DHT22;58984;51.960;5.582;2023-10-13T01:44:25;21.90;68.40
71237;DHT22;58984;51.960;5.582;2023-10-13T01:46:56;21.90;68.50
71237;DHT22;58984;51.960;5.582;2023-10-13T01:49:27;21.90;68.40
71237;DHT22;58984;51.960;5.582;2023-10-13T01:51:52;21.90;68.30
71237;DHT22;58984;51.960;5.582;2023-10-13T01:54:19;21.90;68.20
71237;DHT22;58984;51.960;5.582;2023-10-13T01:56:46;21.90;68.30
71237;DHT22;58984;51.960;5.582;2023-10-13T01:59:14;21.90;68.30
71237;DHT22;58984;51.960;5.582;2023-10-13T02:01:41;21.90;68.50
71237;DHT22;58984;51.960;5.582;2023-10-13T02:04:07;21.90;68.30
71237;DHT22;58984;51.960;5.582;2023-10-13T02:06:36;21.90;68.50
71237;DHT22;58984;51.960;5.582;2023-10-13T02:09:04;21.90;68.30
71237;DHT22;58984;51.960;5.582;2023-10-13T02:11:43;21.90;68.30
71237;DHT22;58984;51.960;5.582;2023-10-13T02:14:12;21.90;68.30
71237;DHT22;58984;51.960;5.582;2023-10-13T02:16:41;21.90;68.30
71237;DHT22;58984;51.960;5.582;2023-10-13T02:19:07;21.90;68.30
71237;DHT22;58984;51.960;5.582;2023-10-13T02:21:34;21.90;68.30
71237;DHT22;58984;51.960;5.582;2023-10-13T02:24:09;21.90;68.30
71237;DHT22;58984;51.960;5.582;2023-10-13T02:26:44;21.90;68.30
71237;DHT22;58984;51.960;5.582;2023-10-13T02:29:11;21.90;68.30
71237;DHT22;58984;51.960;5.582;2023-10-13T02:31:41;21.90;68.50
71237;DHT22;58984;51.960;5.582;2023-10-13T02:34:07;21.90;68.60
71237;DHT22;58984;51.960;5.582;2023-10-13T02:36:37;21.90;68.50
71237;DHT22;58984;51.960;5.582;2023-10-13T02:39:13;21.80;68.50
71237;DHT22;58984;51.960;5.582;2023-10-13T02:41:39;21.90;68.40
71237;DHT22;58984;51.960;5.582;2023-10-13T02:44:07;21.90;68.30
71237;DHT22;58984;51.960;5.582;2023-10-13T02:46:36;21.90;68.30
71237;DHT22;58984;51.960;5.582;2023-10-13T02:49:05;21.90;68.30
71237;DHT22;58984;51.960;5.582;2023-10-13T02:51:37;21.90;68.20
71237;DHT22;58984;51.960;5.582;2023-10-13T02:54:03;21.90;68.20
71237;DHT22;58984;51.960;5.582;2023-10-13T02:56:35;21.90;68.20
71237;DHT22;58984;51.960;5.582;2023-10-13T02:59:01;21.90;68.00
71237;DHT22;58984;51.960;5.582;2023-10-13T03:01:33;21.90;68.10
71237;DHT22;58984;51.960;5.582;2023-10-13T03:04:01;21.90;68.20
71237;DHT22;58984;51.960;5.582;2023-10-13T03:06:27;21.90;68.20
71237;DHT22;58984;51.960;5.582;2023-10-13T03:09:00;21.90;68.10
71237;DHT22;58984;51.960;5.582;2023-10-13T03:11:40;21.90;68.10
71237;DHT22;58984;51.960;5.582;2023-10-13T03:14:23;21.90;68.70
71237;DHT22;58984;51.960;5.582;2023-10-13T03:17:03;21.90;68.00
71237;DHT22;58984;51.960;5.582;2023-10-13T03:19:34;21.80;68.10
71237;DHT22;58984;51.960;5.582;2023-10-13T03:22:07;21.90;68.10
71237;DHT22;58984;51.960;5.582;2023-10-13T03:24:42;21.90;68.30
71237;DHT22;58984;51.960;5.582;2023-10-13T03:27:12;21.90;68.20
71237;DHT22;58984;51.960;5.582;2023-10-13T03:29:42;21.90;68.10
71237;DHT22;58984;51.960;5.582;2023-10-13T03:32:13;21.90;68.30
71237;DHT22;58984;51.960;5.582;2023-10-13T03:34:43;21.80;68.10
71237;DHT22;58984;51.960;5.582;2023-10-13T03:37:36;21.90;68.10
71237;DHT22;58984;51.960;5.582;2023-10-13T03:40:09;21.90;68.10
71237;DHT22;58984;51.960;5.582;2023-10-13T03:42:50;21.90;68.30
71237;DHT22;58984;51.960;5.582;2023-10-13T03:45:45;21.90;69.10
71237;DHT22;58984;51.960;5.582;2023-10-13T03:48:14;21.90;68.30
71237;DHT22;58984;51.960;5.582;2023-10-13T03:50:59;21.90;68.30
71237;DHT22;58984;51.960;5.582;2023-10-13T03:53:41;21.80;68.20
71237;DHT22;58984;51.960;5.582;2023-10-13T03:56:27;21.90;68.30
71237;DHT22;58984;51.960;5.582;2023-10-13T03:58:54;21.80;68.40
71237;DHT22;58984;51.960;5.582;2023-10-13T04:01:24;21.90;68.50
71237;DHT22;58984;51.960;5.582;2023-10-13T04:04:00;21.90;68.60
71237;DHT22;58984;51.960;5.582;2023-10-13T04:06:33;21.90;68.60
71237;DHT22;58984;51.960;5.582;2023-10-13T04:09:18;21.90;68.70
71237;DHT22;58984;51.960;5.582;2023-10-13T04:14:40;21.80;68.50
71237;DHT22;58984;51.960;5.582;2023-10-13T04:17:32;21.80;68.80
71237;DHT22;58984;51.960;5.582;2023-10-13T04:20:06;21.90;68.60
71237;DHT22;58984;51.960;5.582;2023-10-13T04:22:52;21.90;68.70
71237;DHT22;58984;51.960;5.582;2023-10-13T04:25:18;21.80;68.70
71237;DHT22;58984;51.960;5.582;2023-10-13T04:28:06;21.90;68.60
71237;DHT22;58984;51.960;5.582;2023-10-13T04:33:13;21.80;68.80
71237;DHT22;58984;51.960;5.582;2023-10-13T04:36:04;21.80;68.80
71237;DHT22;58984;51.960;5.582;2023-10-13T04:38:43;21.80;68.90
71237;DHT22;58984;51.960;5.582;2023-10-13T04:41:32;21.90;68.90
71237;DHT22;58984;51.960;5.582;2023-10-13T04:44:11;21.90;69.00
71237;DHT22;58984;51.960;5.582;2023-10-13T04:46:55;21.80;68.80
71237;DHT22;58984;51.960;5.582;2023-10-13T04:49:37;21.80;68.90
71237;DHT22;58984;51.960;5.582;2023-10-13T04:52:13;21.90;69.10
71237;DHT22;58984;51.960;5.582;2023-10-13T04:54:52;21.90;69.20
71237;DHT22;58984;51.960;5.582;2023-10-13T04:57:23;21.90;69.10
71237;DHT22;58984;51.960;5.582;2023-10-13T04:59:52;21.80;69.20
71237;DHT22;58984;51.960;5.582;2023-10-13T05:02:47;21.90;69.20
71237;DHT22;58984;51.960;5.582;2023-10-13T05:05:25;21.90;69.00
71237;DHT22;58984;51.960;5.582;2023-10-13T05:07:51;21.90;69.30
71237;DHT22;58984;51.960;5.582;2023-10-13T05:10:37;21.90;69.50
71237;DHT22;58984;51.960;5.582;2023-10-13T05:13:21;21.90;69.50
71237;DHT22;58984;51.960;5.582;2023-10-13T05:16:05;21.90;69.60
71237;DHT22;58984;51.960;5.582;2023-10-13T05:18:52;21.90;69.80
71237;DHT22;58984;51.960;5.582;2023-10-13T05:21:36;21.90;70.00
71237;DHT22;58984;51.960;5.582;2023-10-13T05:24:20;21.90;69.90
71237;DHT22;58984;51.960;5.582;2023-10-13T05:27:05;21.90;69.90
71237;DHT22;58984;51.960;5.582;2023-10-13T05:29:49;21.90;69.80
71237;DHT22;58984;51.960;5.582;2023-10-13T05:32:33;21.90;69.90
71237;DHT22;58984;51.960;5.582;2023-10-13T05:35:20;21.90;70.00
71237;DHT22;58984;51.960;5.582;2023-10-13T05:38:05;22.00;70.20
71237;DHT22;58984;51.960;5.582;2023-10-13T05:41:00;21.90;69.80
71237;DHT22;58984;51.960;5.582;2023-10-13T05:43:45;21.90;70.40
71237;DHT22;58984;51.960;5.582;2023-10-13T05:46:29;22.00;70.70
71237;DHT22;58984;51.960;5.582;2023-10-13T05:49:05;22.00;70.40
71237;DHT22;58984;51.960;5.582;2023-10-13T05:51:34;22.00;70.30
71237;DHT22;58984;51.960;5.582;2023-10-13T05:54:18;22.00;70.30
71237;DHT22;58984;51.960;5.582;2023-10-13T05:56:51;22.00;70.20
71237;DHT22;58984;51.960;5.582;2023-10-13T05:59:37;22.00;70.30
71237;DHT22;58984;51.960;5.582;2023-10-13T06:02:22;22.00;70.20
71237;DHT22;58984;51.960;5.582;2023-10-13T06:05:10;22.00;70.30
71237;DHT22;58984;51.960;5.582;2023-10-13T06:07:56;22.00;70.30
71237;DHT22;58984;51.960;5.582;2023-10-13T06:10:43;22.00;70.10
71237;DHT22;58984;51.960;5.582;2023-10-13T06:13:27;22.00;70.10
71237;DHT22;58984;51.960;5.582;2023-10-13T06:16:16;22.00;70.00
71237;DHT22;58984;51.960;5.582;2023-10-13T06:19:00;22.00;70.10
71237;DHT22;58984;51.960;5.582;2023-10-13T06:21:45;22.00;70.20
71237;DHT22;58984;51.960;5.582;2023-10-13T06:24:29;22.10;70.20
71237;DHT22;58984;51.960;5.582;2023-10-13T06:27:14;22.10;70.40
71237;DHT22;58984;51.960;5.582;2023-10-13T06:29:59;22.10;70.30
71237;DHT22;58984;51.960;5.582;2023-10-13T06:32:41;22.00;70.40
71237;DHT22;58984;51.960;5.582;2023-10-13T06:35:11;22.00;70.40
71237;DHT22;58984;51.960;5.582;2023-10-13T06:37:50;22.10;70.40
71237;DHT22;58984;51.960;5.582;2023-10-13T06:40:16;22.10;70.70
71237;DHT22;58984;51.960;5.582;2023-10-13T06:42:52;22.00;70.80
71237;DHT22;58984;51.960;5.582;2023-10-13T06:45:20;22.10;71.10
71237;DHT22;58984;51.960;5.582;2023-10-13T06:47:49;22.10;70.80
71237;DHT22;58984;51.960;5.582;2023-10-13T06:50:18;22.00;71.10
71237;DHT22;58984;51.960;5.582;2023-10-13T06:52:50;22.10;71.00
71237;DHT22;58984;51.960;5.582;2023-10-13T06:55:16;22.10;71.00
71237;DHT22;58984;51.960;5.582;2023-10-13T06:57:46;22.10;70.70
71237;DHT22;58984;51.960;5.582;2023-10-13T07:00:12;22.10;71.00
71237;DHT22;58984;51.960;5.582;2023-10-13T07:02:59;22.10;71.00
71237;DHT22;58984;51.960;5.582;2023-10-13T07:05:44;22.10;71.00
71237;DHT22;58984;51.960;5.582;2023-10-13T07:08:10;22.20;71.20
71237;DHT22;58984;51.960;5.582;2023-10-13T07:10:56;22.10;72.20
71237;DHT22;58984;51.960;5.582;2023-10-13T07:13:29;22.20;71.50
71237;DHT22;58984;51.960;5.582;2023-10-13T07:15:55;22.20;71.50
71237;DHT22;58984;51.960;5.582;2023-10-13T07:18:31;22.10;71.40
71237;DHT22;58984;51.960;5.582;2023-10-13T07:21:03;22.20;71.40
71237;DHT22;58984;51.960;5.582;2023-10-13T07:23:38;22.20;71.30
71237;DHT22;58984;51.960;5.582;2023-10-13T07:26:05;22.20;71.20
71237;DHT22;58984;51.960;5.582;2023-10-13T07:28:34;22.20;71.30
71237;DHT22;58984;51.960;5.582;2023-10-13T07:31:12;22.20;71.30
71237;DHT22;58984;51.960;5.582;2023-10-13T07:33:37;22.20;71.40
71237;DHT22;58984;51.960;5.582;2023-10-13T07:36:17;22.20;71.30
71237;DHT22;58984;51.960;5.582;2023-10-13T07:39:05;22.10;71.00
71237;DHT22;58984;51.960;5.582;2023-10-13T07:41:48;22.20;71.00
71237;DHT22;58984;51.960;5.582;2023-10-13T07:44:21;22.20;70.80
71237;DHT22;58984;51.960;5.582;2023-10-13T07:46:53;22.20;70.90
71237;DHT22;58984;51.960;5.582;2023-10-13T07:49:33;22.20;71.00
71237;DHT22;58984;51.960;5.582;2023-10-13T07:52:03;22.20;71.20
71237;DHT22;58984;51.960;5.582;2023-10-13T07:54:46;22.20;71.20
71237;DHT22;58984;51.960;5.582;2023-10-13T07:57:16;22.20;71.30
71237;DHT22;58984;51.960;5.582;2023-10-13T07:59:43;22.20;71.30
71237;DHT22;58984;51.960;5.582;2023-10-13T08:02:29;22.20;71.30
71237;DHT22;58984;51.960;5.582;2023-10-13T08:05:17;22.20;71.50
71237;DHT22;58984;51.960;5.582;2023-10-13T08:08:11;22.20;71.50
71237;DHT22;58984;51.960;5.582;2023-10-13T08:10:40;22.30;71.50
71237;DHT22;58984;51.960;5.582;2023-10-13T08:13:08;22.20;71.60
71237;DHT22;58984;51.960;5.582;2023-10-13T08:15:42;22.20;71.60
71237;DHT22;58984;51.960;5.582;2023-10-13T08:18:15;22.20;71.40
71237;DHT22;58984;51.960;5.582;2023-10-13T08:20:45;22.20;71.40
71237;DHT22;58984;51.960;5.582;2023-10-13T08:23:15;22.20;71.10
71237;DHT22;58984;51.960;5.582;2023-10-13T08:25:45;22.30;71.50
71237;DHT22;58984;51.960;5.582;2023-10-13T08:28:29;22.30;71.50
71237;DHT22;58984;51.960;5.582;2023-10-13T08:31:05;22.30;71.30
71237;DHT22;58984;51.960;5.582;2023-10-13T08:33:51;22.30;71.30
71237;DHT22;58984;51.960;5.582;2023-10-13T08:36:28;22.30;71.30
71237;DHT22;58984;51.960;5.582;2023-10-13T08:38:55;22.30;71.20
71237;DHT22;58984;51.960;5.582;2023-10-13T08:41:22;22.30;71.20
71237;DHT22;58984;51.960;5.582;2023-10-13T08:43:53;22.30;71.10
71237;DHT22;58984;51.960;5.582;2023-10-13T08:46:30;22.30;71.20
71237;DHT22;58984;51.960;5.582;2023-10-13T08:49:08;22.40;71.20
71237;DHT22;58984;51.960;5.582;2023-10-13T08:51:36;22.40;71.00
71237;DHT22;58984;51.960;5.582;2023-10-13T08:54:14;22.50;70.80
71237;DHT22;58984;51.960;5.582;2023-10-13T08:57:02;22.50;70.50
71237;DHT22;58984;51.960;5.582;2023-10-13T08:59:50;22.50;70.60
71237;DHT22;58984;51.960;5.582;2023-10-13T09:02:22;22.40;70.40
71237;DHT22;58984;51.960;5.582;2023-10-13T09:05:11;22.40;70.60
71237;DHT22;58984;51.960;5.582;2023-10-13T09:07:55;22.40;70.60
71237;DHT22;58984;51.960;5.582;2023-10-13T09:10:33;22.50;70.50
71237;DHT22;58984;51.960;5.582;2023-10-13T09:12:58;22.50;70.60
71237;DHT22;58984;51.960;5.582;2023-10-13T09:15:30;22.50;70.60
71237;DHT22;58984;51.960;5.582;2023-10-13T09:18:25;22.40;70.50
71237;DHT22;58984;51.960;5.582;2023-10-13T09:21:08;22.40;70.50
71237;DHT22;58984;51.960;5.582;2023-10-13T09:23:54;22.50;70.40
71237;DHT22;58984;51.960;5.582;2023-10-13T09:26:39;22.50;70.30
71237;DHT22;58984;51.960;5.582;2023-10-13T09:29:17;22.60;70.40
71237;DHT22;58984;51.960;5.582;2023-10-13T09:31:47;22.50;70.50
71237;DHT22;58984;51.960;5.582;2023-10-13T09:34:22;22.60;70.40
71237;DHT22;58984;51.960;5.582;2023-10-13T09:36:52;22.60;70.40
71237;DHT22;58984;51.960;5.582;2023-10-13T09:39:27;22.50;70.10
71237;DHT22;58984;51.960;5.582;2023-10-13T09:41:59;22.60;70.30
71237;DHT22;58984;51.960;5.582;2023-10-13T09:44:29;22.60;69.90
71237;DHT22;58984;51.960;5.582;2023-10-13T09:47:11;22.60;70.20
71237;DHT22;58984;51.960;5.582;2023-10-13T09:49:49;22.60;70.20
71237;DHT22;58984;51.960;5.582;2023-10-13T09:52:18;22.60;69.90
71237;DHT22;58984;51.960;5.582;2023-10-13T09:55:03;22.60;70.00
71237;DHT22;58984;51.960;5.582;2023-10-13T09:57:37;22.60;70.00
71237;DHT22;58984;51.960;5.582;2023-10-13T10:00:18;22.60;69.80
71237;DHT22;58984;51.960;5.582;2023-10-13T10:03:06;22.60;69.80
71237;DHT22;58984;51.960;5.582;2023-10-13T10:06:02;22.60;69.70
71237;DHT22;58984;51.960;5.582;2023-10-13T10:08:44;22.70;69.70
71237;DHT22;58984;51.960;5.582;2023-10-13T10:11:35;22.70;69.70
71237;DHT22;58984;51.960;5.582;2023-10-13T10:14:08;22.60;69.70
71237;DHT22;58984;51.960;5.582;2023-10-13T10:17:04;22.70;69.60
71237;DHT22;58984;51.960;5.582;2023-10-13T10:19:45;22.70;70.60
71237;DHT22;58984;51.960;5.582;2023-10-13T10:22:10;22.70;69.40
71237;DHT22;58984;51.960;5.582;2023-10-13T10:24:43;22.70;69.40
71237;DHT22;58984;51.960;5.582;2023-10-13T10:27:12;22.70;69.40
71237;DHT22;58984;51.960;5.582;2023-10-13T10:29:58;22.70;69.40
71237;DHT22;58984;51.960;5.582;2023-10-13T10:32:36;22.70;69.50
71237;DHT22;58984;51.960;5.582;2023-10-13T10:35:07;22.70;69.40
71237;DHT22;58984;51.960;5.582;2023-10-13T10:37:45;22.80;69.30
71237;DHT22;58984;51.960;5.582;2023-10-13T10:40:20;22.80;69.90
71237;DHT22;58984;51.960;5.582;2023-10-13T10:43:05;22.80;69.70
71237;DHT22;58984;51.960;5.582;2023-10-13T10:45:35;22.90;69.30
71237;DHT22;58984;51.960;5.582;2023-10-13T10:48:14;22.90;69.40
71237;DHT22;58984;51.960;5.582;2023-10-13T10:50:55;22.90;69.40
71237;DHT22;58984;51.960;5.582;2023-10-13T10:53:22;22.80;69.10
71237;DHT22;58984;51.960;5.582;2023-10-13T10:55:50;22.90;69.20
71237;DHT22;58984;51.960;5.582;2023-10-13T10:58:16;23.00;69.30
71237;DHT22;58984;51.960;5.582;2023-10-13T11:01:14;23.00;69.20
71237;DHT22;58984;51.960;5.582;2023-10-13T11:04:24;22.90;69.30
71237;DHT22;58984;51.960;5.582;2023-10-13T11:07:02;22.90;69.30
71237;DHT22;58984;51.960;5.582;2023-10-13T11:09:43;23.00;68.80
71237;DHT22;58984;51.960;5.582;2023-10-13T11:12:17;23.00;68.90
71237;DHT22;58984;51.960;5.582;2023-10-13T11:15:16;23.00;69.10
71237;DHT22;58984;51.960;5.582;2023-10-13T11:18:03;23.00;69.10
71237;DHT22;58984;51.960;5.582;2023-10-13T11:20:33;23.10;68.90
71237;DHT22;58984;51.960;5.582;2023-10-13T11:23:15;23.00;68.80
71237;DHT22;58984;51.960;5.582;2023-10-13T11:25:41;23.00;68.60
71237;DHT22;58984;51.960;5.582;2023-10-13T11:28:13;23.10;68.70
71237;DHT22;58984;51.960;5.582;2023-10-13T11:30:49;23.10;68.70
71237;DHT22;58984;51.960;5.582;2023-10-13T11:33:33;23.00;68.50
71237;DHT22;58984;51.960;5.582;2023-10-13T11:36:02;23.10;68.30
71237;DHT22;58984;51.960;5.582;2023-10-13T11:38:40;23.10;68.50
71237;DHT22;58984;51.960;5.582;2023-10-13T11:44:19;23.10;67.90
71237;DHT22;58984;51.960;5.582;2023-10-13T11:47:01;23.10;67.70
71237;DHT22;58984;51.960;5.582;2023-10-13T11:49:55;23.10;67.80
71237;DHT22;58984;51.960;5.582;2023-10-13T11:52:23;23.20;67.60
71237;DHT22;58984;51.960;5.582;2023-10-13T11:54:59;23.10;67.30
71237;DHT22;58984;51.960;5.582;2023-10-13T11:57:24;23.10;67.60
71237;DHT22;58984;51.960;5.582;2023-10-13T11:59:51;23.20;67.60
71237;DHT22;58984;51.960;5.582;2023-10-13T12:02:24;23.10;67.60
71237;DHT22;58984;51.960;5.582;2023-10-13T12:04:53;23.20;67.60
71237;DHT22;58984;51.960;5.582;2023-10-13T12:07:25;23.20;67.60
71237;DHT22;58984;51.960;5.582;2023-10-13T12:10:09;23.20;67.40
71237;DHT22;58984;51.960;5.582;2023-10-13T12:12:45;23.20;67.40
71237;DHT22;58984;51.960;5.582;2023-10-13T12:15:13;23.20;67.50
71237;DHT22;58984;51.960;5.582;2023-10-13T12:17:51;23.20;67.50
71237;DHT22;58984;51.960;5.582;2023-10-13T12:20:16;23.20;67.20
71237;DHT22;58984;51.960;5.582;2023-10-13T12:22:58;23.20;67.40
71237;DHT22;58984;51.960;5.582;2023-10-13T12:25:38;23.30;67.50
71237;DHT22;58984;51.960;5.582;2023-10-13T12:28:20;23.20;67.30
71237;DHT22;58984;51.960;5.582;2023-10-13T12:30:49;23.30;67.40
71237;DHT22;58984;51.960;5.582;2023-10-13T12:33:15;23.30;67.40
71237;DHT22;58984;51.960;5.582;2023-10-13T12:35:58;23.30;67.40
71237;DHT22;58984;51.960;5.582;2023-10-13T12:38:42;23.30;67.30
71237;DHT22;58984;51.960;5.582;2023-10-13T12:41:14;23.30;67.20
71237;DHT22;58984;51.960;5.582;2023-10-13T12:43:58;23.30;67.20
71237;DHT22;58984;51.960;5.582;2023-10-13T12:46:45;23.30;67.10
71237;DHT22;58984;51.960;5.582;2023-10-13T12:49:32;23.30;67.20
71237;DHT22;58984;51.960;5.582;2023-10-13T12:52:15;23.30;67.20
71237;DHT22;58984;51.960;5.582;2023-10-13T12:54:59;23.40;67.20
71237;DHT22;58984;51.960;5.582;2023-10-13T12:57:32;23.40;67.00
71237;DHT22;58984;51.960;5.582;2023-10-13T13:00:02;23.40;67.10
71237;DHT22;58984;51.960;5.582;2023-10-13T13:02:46;23.40;67.10
71237;DHT22;58984;51.960;5.582;2023-10-13T13:05:12;23.40;66.90
71237;DHT22;58984;51.960;5.582;2023-10-13T13:07:41;23.40;66.70
71237;DHT22;58984;51.960;5.582;2023-10-13T13:10:18;23.40;66.90
71237;DHT22;58984;51.960;5.582;2023-10-13T13:12:43;23.40;66.80
71237;DHT22;58984;51.960;5.582;2023-10-13T13:15:12;23.40;66.80
71237;DHT22;58984;51.960;5.582;2023-10-13T13:17:38;23.40;66.80
71237;DHT22;58984;51.960;5.582;2023-10-13T13:20:13;23.50;67.00
71237;DHT22;58984;51.960;5.582;2023-10-13T13:22:57;23.40;66.70
71237;DHT22;58984;51.960;5.582;2023-10-13T13:26:00;23.40;66.40
71237;DHT22;58984;51.960;5.582;2023-10-13T13:28:26;23.40;66.90
71237;DHT22;58984;51.960;5.582;2023-10-13T13:31:00;23.50;66.50
71237;DHT22;58984;51.960;5.582;2023-10-13T13:33:26;23.50;66.70
71237;DHT22;58984;51.960;5.582;2023-10-13T13:36:01;23.50;66.40
71237;DHT22;58984;51.960;5.582;2023-10-13T13:38:29;23.50;66.80
71237;DHT22;58984;51.960;5.582;2023-10-13T13:41:12;23.50;66.70
71237;DHT22;58984;51.960;5.582;2023-10-13T13:43:44;23.40;66.90
71237;DHT22;58984;51.960;5.582;2023-10-13T13:46:27;23.50;66.90
71237;DHT22;58984;51.960;5.582;2023-10-13T13:48:58;23.40;66.80
71237;DHT22;58984;51.960;5.582;2023-10-13T13:51:27;23.50;66.90
71237;DHT22;58984;51.960;5.582;2023-10-13T13:54:13;23.50;67.00
71237;DHT22;58984;51.960;5.582;2023-10-13T14:00:13;23.40;66.90
71237;DHT22;58984;51.960;5.582;2023-10-13T14:02:50;23.50;66.90
71237;DHT22;58984;51.960;5.582;2023-10-13T14:05:20;23.40;66.80
71237;DHT22;58984;51.960;5.582;2023-10-13T14:07:49;23.40;66.70
71237;DHT22;58984;51.960;5.582;2023-10-13T14:10:27;23.50;66.90
71237;DHT22;58984;51.960;5.582;2023-10-13T14:13:24;23.50;66.90
71237;DHT22;58984;51.960;5.582;2023-10-13T14:16:15;23.40;66.80
71237;DHT22;58984;51.960;5.582;2023-10-13T14:18:53;23.50;67.10
71237;DHT22;58984;51.960;5.582;2023-10-13T14:21:26;23.40;67.00
71237;DHT22;58984;51.960;5.582;2023-10-13T14:23:56;23.40;66.90
71237;DHT22;58984;51.960;5.582;2023-10-13T14:26:34;23.50;67.20
71237;DHT22;58984;51.960;5.582;2023-10-13T14:29:05;23.50;67.10
71237;DHT22;58984;51.960;5.582;2023-10-13T14:31:56;23.40;67.00
71237;DHT22;58984;51.960;5.582;2023-10-13T14:38:05;23.40;67.10
71237;DHT22;58984;51.960;5.582;2023-10-13T14:40:40;23.40;67.20
71237;DHT22;58984;51.960;5.582;2023-10-13T14:46:33;23.40;67.30
71237;DHT22;58984;51.960;5.582;2023-10-13T14:49:24;23.40;67.30
71237;DHT22;58984;51.960;5.582;2023-10-13T14:53:07;23.40;67.30
71237;DHT22;58984;51.960;5.582;2023-10-13T14:55:45;23.30;67.60
71237;DHT22;58984;51.960;5.582;2023-10-13T14:58:19;23.30;67.20
71237;DHT22;58984;51.960;5.582;2023-10-13T15:07:44;23.30;67.60
71237;DHT22;58984;51.960;5.582;2023-10-13T15:10:14;23.40;67.60
71237;DHT22;58984;51.960;5.582;2023-10-13T15:12:43;23.30;67.70
71237;DHT22;58984;51.960;5.582;2023-10-13T15:15:14;23.30;68.60
71237;DHT22;58984;51.960;5.582;2023-10-13T15:17:42;23.30;67.90
71237;DHT22;58984;51.960;5.582;2023-10-13T15:20:08;23.30;67.80
71237;DHT22;58984;51.960;5.582;2023-10-13T15:22:36;23.30;67.90
71237;DHT22;58984;51.960;5.582;2023-10-13T15:25:05;23.30;67.90
71237;DHT22;58984;51.960;5.582;2023-10-13T15:27:35;23.30;68.10
71237;DHT22;58984;51.960;5.582;2023-10-13T15:30:07;23.30;68.00
71237;DHT22;58984;51.960;5.582;2023-10-13T15:32:46;23.40;68.10
71237;DHT22;58984;51.960;5.582;2023-10-13T15:35:13;23.40;67.60
71237;DHT22;58984;51.960;5.582;2023-10-13T15:37:40;23.30;67.80
71237;DHT22;58984;51.960;5.582;2023-10-13T15:40:11;23.30;68.00
71237;DHT22;58984;51.960;5.582;2023-10-13T15:42:42;23.30;68.10
71237;DHT22;58984;51.960;5.582;2023-10-13T15:45:08;23.30;68.10
71237;DHT22;58984;51.960;5.582;2023-10-13T15:47:46;23.20;67.90
71237;DHT22;58984;51.960;5.582;2023-10-13T15:50:15;23.30;68.10
71237;DHT22;58984;51.960;5.582;2023-10-13T15:52:46;23.20;67.90
71237;DHT22;58984;51.960;5.582;2023-10-13T15:55:13;23.20;67.90
71237;DHT22;58984;51.960;5.582;2023-10-13T15:57:41;23.20;67.90
71237;DHT22;58984;51.960;5.582;2023-10-13T16:00:11;23.20;67.90
71237;DHT22;58984;51.960;5.582;2023-10-13T16:02:52;23.20;67.90
71237;DHT22;58984;51.960;5.582;2023-10-13T16:05:20;23.20;67.90
71237;DHT22;58984;51.960;5.582;2023-10-13T16:07:50;23.20;67.80
71237;DHT22;58984;51.960;5.582;2023-10-13T16:10:16;23.20;67.90
71237;DHT22;58984;51.960;5.582;2023-10-13T16:12:43;23.20;67.90
71237;DHT22;58984;51.960;5.582;2023-10-13T16:15:11;23.20;67.90
71237;DHT22;58984;51.960;5.582;2023-10-13T16:17:42;23.20;67.90
71237;DHT22;58984;51.960;5.582;2023-10-13T16:20:09;23.20;67.90
71237;DHT22;58984;51.960;5.582;2023-10-13T16:22:48;23.20;67.90
71237;DHT22;58984;51.960;5.582;2023-10-13T16:25:15;23.10;67.80
71237;DHT22;58984;51.960;5.582;2023-10-13T16:27:42;23.20;67.90
71237;DHT22;58984;51.960;5.582;2023-10-13T16:30:09;23.20;67.90
71237;DHT22;58984;51.960;5.582;2023-10-13T16:32:36;23.10;67.80
71237;DHT22;58984;51.960;5.582;2023-10-13T16:35:05;23.10;67.60
71237;DHT22;58984;51.960;5.582;2023-10-13T16:37:32;23.10;67.60
71237;DHT22;58984;51.960;5.582;2023-10-13T16:39:59;23.20;67.60
71237;DHT22;58984;51.960;5.582;2023-10-13T16:42:31;23.10;67.40
71237;DHT22;58984;51.960;5.582;2023-10-13T16:45:00;23.20;67.50
71237;DHT22;58984;51.960;5.582;2023-10-13T16:47:48;23.20;67.40